Time;durP1;ratioP1;P1;durP2;ratioP2;P2;SDS_P1;SDS_P2;PMS_P1;PMS_P2;Temp;Humidity;BMP_temperature;BMP_pressure;BME280_temperature;BME280_humidity;BME280_pressure;Samples;Min_cycle;Max_cycle;Signal;HPM_P1;HPM_P2
2023/07/30 00:02:17;;;;;;;1.20;1.10;;;24.20;99.90;;;;;;5110588;28;20205;-73
2023/07/30 00:04:44;;;;;;;1.52;1.10;;;24.30;99.90;;;;;;5110456;28;20612;-73
2023/07/30 00:07:11;;;;;;;1.60;0.90;;;24.20;99.90;;;;;;5110757;28;20232;-73
2023/07/30 00:09:38;;;;;;;1.05;0.70;;;24.20;99.90;;;;;;5111332;28;20623;-83
2023/07/30 00:12:09;;;;;;;1.42;1.30;;;24.10;99.90;;;;;;5110666;28;20243;-83
2023/07/30 00:14:36;;;;;;;1.40;1.25;;;24.10;99.90;;;;;;5110904;28;20676;-84
2023/07/30 00:17:03;;;;;;;1.98;1.00;;;24.00;99.90;;;;;;5110299;28;20251;-73
2023/07/30 00:19:30;;;;;;;1.23;1.13;;;24.00;99.90;;;;;;5110920;28;20264;-73
2023/07/30 00:21:57;;;;;;;1.38;1.08;;;24.00;99.90;;;;;;5110233;28;20247;-73
2023/07/30 00:24:24;;;;;;;1.15;0.90;;;24.10;99.90;;;;;;5110628;28;20684;-73
2023/07/30 00:26:51;;;;;;;0.80;0.75;;;24.10;99.90;;;;;;5110140;28;20240;-73
2023/07/30 00:29:19;;;;;;;1.13;0.90;;;24.10;99.90;;;;;;5110499;28;20247;-85
2023/07/30 00:31:46;;;;;;;1.08;0.98;;;24.00;99.90;;;;;;5105558;28;20293;-86
2023/07/30 00:34:13;;;;;;;1.25;1.15;;;23.80;99.90;;;;;;5105882;28;20240;-73
2023/07/30 00:36:40;;;;;;;2.63;1.42;;;23.80;99.90;;;;;;5110825;28;20228;-80
2023/07/30 00:39:07;;;;;;;1.40;0.90;;;23.90;99.90;;;;;;5110816;28;20228;-73
2023/07/30 00:41:34;;;;;;;1.58;0.90;;;23.90;99.90;;;;;;5110839;28;20209;-73
2023/07/30 00:44:01;;;;;;;0.95;0.63;;;23.80;99.90;;;;;;5113833;28;20658;-72
2023/07/30 00:46:29;;;;;;;1.17;1.08;;;23.70;99.90;;;;;;5114551;28;20236;-73
2023/07/30 00:48:56;;;;;;;1.77;1.17;;;23.60;99.90;;;;;;5113607;28;20208;-74
2023/07/30 00:51:23;;;;;;;1.38;1.25;;;23.70;99.90;;;;;;5114584;28;20644;-72
2023/07/30 00:53:50;;;;;;;0.95;0.85;;;23.80;99.90;;;;;;5114042;28;20240;-72
2023/07/30 00:56:17;;;;;;;0.88;0.80;;;23.70;99.90;;;;;;5114149;28;20208;-73
2023/07/30 00:58:47;;;;;;;1.48;0.82;;;23.70;99.90;;;;;;5113702;28;20241;-73
2023/07/30 01:01:14;;;;;;;1.27;0.98;;;23.70;99.90;;;;;;5113767;28;20212;-73
2023/07/30 01:03:43;;;;;;;1.38;1.00;;;23.70;99.90;;;;;;5114391;28;20205;-73
2023/07/30 01:06:10;;;;;;;3.15;1.30;;;23.70;99.90;;;;;;5114148;28;20762;-74
2023/07/30 01:08:38;;;;;;;1.75;1.30;;;23.60;99.90;;;;;;5114656;28;20223;-85
2023/07/30 01:11:07;;;;;;;1.48;1.38;;;23.60;99.90;;;;;;5113743;28;20597;-74
2023/07/30 01:13:37;;;;;;;3.17;1.08;;;23.50;99.90;;;;;;5113570;28;20240;-73
2023/07/30 01:16:06;;;;;;;3.53;1.63;;;23.50;99.90;;;;;;5114136;28;20205;-73
2023/07/30 01:18:33;;;;;;;2.05;1.15;;;23.50;99.90;;;;;;5113579;28;20233;-73
2023/07/30 01:21:01;;;;;;;1.30;1.20;;;23.50;99.90;;;;;;5113290;28;20275;-73
2023/07/30 01:23:28;;;;;;;1.48;1.38;;;23.40;99.90;;;;;;5113740;28;20240;-75
2023/07/30 01:26:03;;;;;;;1.50;1.10;;;23.40;99.90;;;;;;5113213;28;20255;-74
2023/07/30 01:28:37;;;;;;;1.73;1.45;;;23.30;99.90;;;;;;5113448;27;20240;-74
2023/07/30 01:31:05;;;;;;;1.23;1.13;;;23.40;99.90;;;;;;5113638;28;20244;-80
2023/07/30 01:33:33;;;;;;;1.73;1.48;;;23.40;99.90;;;;;;5113633;28;20615;-83
2023/07/30 01:36:03;;;;;;;3.40;1.52;;;23.40;99.90;;;;;;5112949;28;20209;-73
2023/07/30 01:38:31;;;;;;;1.20;1.10;;;23.30;99.90;;;;;;5113247;28;20208;-73
2023/07/30 01:40:58;;;;;;;3.05;1.15;;;23.30;99.90;;;;;;5112958;28;20264;-73
2023/07/30 01:43:25;;;;;;;2.83;1.15;;;23.30;99.90;;;;;;5113165;28;20299;-77
2023/07/30 01:45:52;;;;;;;1.10;1.00;;;23.20;99.90;;;;;;5112998;28;20252;-73
2023/07/30 01:48:18;;;;;;;1.23;1.00;;;23.20;99.90;;;;;;5113625;28;20237;-73
2023/07/30 01:50:47;;;;;;;1.98;1.77;;;23.10;99.90;;;;;;5112652;28;20633;-83
2023/07/30 01:53:15;;;;;;;1.17;1.02;;;23.00;99.90;;;;;;5112026;28;20690;-73
2023/07/30 01:55:45;;;;;;;1.73;1.02;;;23.00;99.90;;;;;;5112520;28;20228;-73
2023/07/30 01:58:13;;;;;;;1.55;1.10;;;22.90;99.90;;;;;;5112959;28;20689;-73
2023/07/30 02:00:39;;;;;;;2.00;1.30;;;23.00;99.90;;;;;;5112622;28;20644;-79
2023/07/30 02:03:07;;;;;;;2.60;1.38;;;22.90;99.90;;;;;;5113054;28;20240;-73
2023/07/30 02:05:33;;;;;;;1.52;1.00;;;22.90;99.90;;;;;;5112458;27;20237;-73
2023/07/30 02:08:00;;;;;;;2.03;1.17;;;22.80;99.90;;;;;;5112507;28;20260;-73
2023/07/30 02:10:29;;;;;;;2.70;1.05;;;22.90;99.90;;;;;;5112805;28;20201;-73
2023/07/30 02:12:55;;;;;;;1.88;1.17;;;22.80;99.90;;;;;;5112191;28;20240;-73
2023/07/30 02:15:22;;;;;;;1.95;0.95;;;22.80;99.90;;;;;;5112772;28;20205;-73
2023/07/30 02:17:49;;;;;;;2.70;1.27;;;22.90;99.90;;;;;;5111915;27;20240;-73
2023/07/30 02:20:16;;;;;;;2.55;1.20;;;22.80;99.90;;;;;;5112381;28;20260;-73
2023/07/30 02:22:43;;;;;;;2.53;1.42;;;22.80;99.90;;;;;;5112111;28;20240;-73
2023/07/30 02:25:10;;;;;;;3.20;1.20;;;22.80;99.90;;;;;;5112603;28;20244;-72
2023/07/30 02:27:38;;;;;;;2.92;0.98;;;22.90;99.90;;;;;;5112564;28;20688;-73
2023/07/30 02:30:06;;;;;;;1.45;1.02;;;22.70;99.90;;;;;;5112200;28;20248;-76
2023/07/30 02:32:33;;;;;;;2.33;1.20;;;22.70;99.90;;;;;;5112212;27;20236;-73
2023/07/30 02:35:00;;;;;;;1.15;0.90;;;22.70;99.90;;;;;;5112143;28;20250;-73
2023/07/30 02:37:27;;;;;;;1.33;1.10;;;22.70;99.90;;;;;;5112305;28;20247;-74
2023/07/30 02:39:54;;;;;;;1.65;1.55;;;22.70;99.90;;;;;;5111223;28;20260;-73
2023/07/30 02:42:21;;;;;;;1.98;1.20;;;22.60;99.90;;;;;;5112023;28;20244;-73
2023/07/30 02:44:50;;;;;;;3.05;1.60;;;22.70;99.90;;;;;;5111620;27;20239;-73
2023/07/30 02:47:17;;;;;;;1.88;1.27;;;22.60;99.90;;;;;;5111786;28;20201;-73
2023/07/30 02:49:44;;;;;;;2.22;1.33;;;22.40;99.90;;;;;;5111862;28;20240;-73
2023/07/30 02:52:11;;;;;;;1.58;1.40;;;22.30;99.90;;;;;;5111705;28;20684;-73
2023/07/30 02:54:37;;;;;;;6.78;1.30;;;22.40;99.90;;;;;;5112107;27;20229;-73
2023/07/30 02:57:05;;;;;;;1.27;1.00;;;22.40;99.90;;;;;;5111582;28;20228;-73
2023/07/30 02:59:35;;;;;;;1.35;1.23;;;22.40;99.90;;;;;;5083541;28;20686;-73
2023/07/30 03:02:04;;;;;;;2.55;1.20;;;22.30;99.90;;;;;;5111690;27;20702;-73
2023/07/30 03:04:31;;;;;;;1.50;1.02;;;22.40;99.90;;;;;;5110956;28;20212;-76
2023/07/30 03:06:58;;;;;;;2.45;1.05;;;22.30;99.90;;;;;;5111343;28;20243;-77
2023/07/30 03:09:25;;;;;;;2.58;1.20;;;22.30;99.90;;;;;;5111406;28;20244;-73
2023/07/30 03:11:52;;;;;;;1.80;1.15;;;22.30;99.90;;;;;;5111250;28;20659;-73
2023/07/30 03:14:20;;;;;;;2.33;1.92;;;22.40;99.90;;;;;;5111595;28;20239;-72
2023/07/30 03:16:47;;;;;;;1.83;0.98;;;22.40;99.90;;;;;;5111140;28;20244;-73
2023/07/30 03:19:16;;;;;;;2.85;1.67;;;22.40;99.90;;;;;;5111202;28;20650;-73
2023/07/30 03:21:43;;;;;;;1.30;1.00;;;22.30;99.90;;;;;;5111244;28;20325;-73
2023/07/30 03:24:10;;;;;;;1.33;0.90;;;22.40;99.90;;;;;;5111441;28;20290;-73
2023/07/30 03:26:37;;;;;;;2.10;1.35;;;22.40;99.90;;;;;;5111692;28;20273;-72
2023/07/30 03:29:04;;;;;;;1.38;0.90;;;22.40;99.90;;;;;;5111244;28;20201;-73
2023/07/30 03:31:31;;;;;;;1.65;1.15;;;22.30;99.90;;;;;;5111018;28;20232;-86
2023/07/30 03:33:58;;;;;;;2.55;1.20;;;22.10;99.90;;;;;;5111148;28;20200;-70
2023/07/30 03:36:26;;;;;;;1.92;1.70;;;22.00;99.90;;;;;;5111143;28;20232;-84
2023/07/30 03:38:53;;;;;;;1.20;1.10;;;22.00;99.90;;;;;;5110791;28;20261;-70
2023/07/30 03:41:20;;;;;;;2.42;1.10;;;22.10;99.90;;;;;;5110926;28;20271;-70
2023/07/30 03:43:47;;;;;;;1.73;1.20;;;22.10;99.90;;;;;;5111091;28;20246;-70
2023/07/30 03:46:14;;;;;;;1.52;1.20;;;22.00;99.90;;;;;;5111197;28;20239;-70
2023/07/30 03:48:40;;;;;;;0.98;0.85;;;22.10;99.90;;;;;;5110911;28;20253;-79
2023/07/30 03:51:08;;;;;;;1.33;0.90;;;22.10;99.90;;;;;;5111533;28;20651;-70
2023/07/30 03:53:36;;;;;;;1.50;1.33;;;22.10;99.90;;;;;;5111495;28;20205;-70
2023/07/30 03:56:03;;;;;;;2.25;1.10;;;22.00;99.90;;;;;;5110496;28;20236;-70
2023/07/30 03:58:31;;;;;;;1.70;1.30;;;22.00;99.90;;;;;;5111003;28;20706;-70
2023/07/30 04:00:58;;;;;;;1.88;1.00;;;22.00;99.90;;;;;;5110239;28;20718;-70
2023/07/30 04:03:25;;;;;;;1.25;1.00;;;22.10;99.90;;;;;;5111073;28;20228;-71
2023/07/30 04:05:51;;;;;;;4.80;1.10;;;22.10;99.90;;;;;;5110781;28;20255;-71
2023/07/30 04:08:18;;;;;;;1.88;1.33;;;22.00;99.90;;;;;;5110739;28;20232;-70
2023/07/30 04:10:47;;;;;;;3.22;1.52;;;22.00;99.90;;;;;;5110550;28;20244;-70
2023/07/30 04:13:14;;;;;;;4.20;1.63;;;22.00;99.90;;;;;;5110726;28;20204;-70
2023/07/30 04:15:41;;;;;;;3.78;1.30;;;21.80;99.90;;;;;;5111021;28;20232;-70
2023/07/30 04:18:08;;;;;;;5.70;1.75;;;21.70;99.90;;;;;;5113735;28;20209;-71
2023/07/30 04:20:35;;;;;;;1.10;1.10;;;21.70;99.90;;;;;;5115185;28;20274;-73
2023/07/30 04:23:02;;;;;;;1.98;1.27;;;21.80;99.90;;;;;;5114165;28;20244;-83
2023/07/30 04:25:28;;;;;;;3.38;1.33;;;21.70;99.90;;;;;;5114639;28;20708;-73
2023/07/30 04:27:57;;;;;;;1.75;1.30;;;21.80;99.90;;;;;;5114363;28;20263;-73
2023/07/30 04:30:24;;;;;;;2.72;1.23;;;21.90;99.90;;;;;;5114884;27;20235;-86
2023/07/30 04:32:51;;;;;;;2.25;1.20;;;21.90;99.90;;;;;;5114009;28;20254;-85
2023/07/30 04:35:18;;;;;;;3.10;1.33;;;21.90;99.90;;;;;;5114555;27;20718;-73
2023/07/30 04:37:45;;;;;;;1.60;1.13;;;21.90;99.90;;;;;;5113527;28;20243;-73
2023/07/30 04:40:12;;;;;;;2.72;1.20;;;21.90;99.90;;;;;;5114710;28;20286;-83
2023/07/30 04:42:39;;;;;;;2.00;1.10;;;21.80;99.90;;;;;;5114810;27;20209;-72
2023/07/30 04:45:08;;;;;;;1.70;1.20;;;21.80;99.90;;;;;;5114650;28;20236;-73
2023/07/30 04:47:35;;;;;;;1.80;1.42;;;21.80;99.90;;;;;;5114557;28;20197;-90
2023/07/30 04:50:02;;;;;;;2.90;1.15;;;21.70;99.90;;;;;;5113760;28;20240;-73
2023/07/30 04:52:29;;;;;;;4.90;2.40;;;21.70;99.90;;;;;;5113947;28;20232;-72
2023/07/30 04:54:56;;;;;;;2.85;1.52;;;21.70;99.90;;;;;;5114128;28;20204;-73
2023/07/30 04:57:23;;;;;;;3.30;1.58;;;21.70;99.90;;;;;;5114049;28;20233;-72
2023/07/30 04:59:50;;;;;;;4.50;1.60;;;21.60;99.90;;;;;;5113359;28;20277;-73
2023/07/30 05:02:18;;;;;;;3.03;1.55;;;21.70;99.90;;;;;;5113775;28;20251;-72
2023/07/30 05:04:45;;;;;;;3.38;1.38;;;21.50;99.90;;;;;;5112960;28;20664;-73
2023/07/30 05:07:12;;;;;;;1.88;1.77;;;21.50;99.90;;;;;;5114340;28;20240;-73
2023/07/30 05:09:39;;;;;;;2.97;1.42;;;21.60;99.90;;;;;;5114119;28;20251;-73
2023/07/30 05:12:06;;;;;;;5.25;2.25;;;21.70;99.90;;;;;;5113648;28;20237;-73
2023/07/30 05:14:33;;;;;;;2.03;1.50;;;21.60;99.90;;;;;;5113804;28;20236;-74
2023/07/30 05:17:00;;;;;;;2.45;1.55;;;21.50;99.90;;;;;;5113319;28;20295;-73
2023/07/30 05:19:28;;;;;;;4.13;1.42;;;21.40;99.90;;;;;;5113517;28;20216;-74
2023/07/30 05:21:55;;;;;;;2.95;1.80;;;21.30;99.90;;;;;;5113364;28;20236;-73
2023/07/30 05:24:22;;;;;;;2.53;1.30;;;21.40;99.90;;;;;;5113718;28;20201;-72
2023/07/30 05:26:49;;;;;;;2.83;1.63;;;21.40;99.90;;;;;;5113378;28;20220;-72
2023/07/30 05:29:16;;;;;;;2.60;1.88;;;21.50;99.90;;;;;;5113069;28;20236;-73
2023/07/30 05:31:43;;;;;;;3.60;1.38;;;21.40;99.90;;;;;;5113108;28;20237;-73
2023/07/30 05:34:10;;;;;;;3.53;1.70;;;21.50;99.90;;;;;;5112928;28;20232;-73
2023/07/30 05:36:38;;;;;;;3.90;1.65;;;21.50;99.90;;;;;;5113825;28;20240;-73
2023/07/30 05:39:05;;;;;;;5.00;1.30;;;21.30;99.90;;;;;;5113062;28;20254;-72
2023/07/30 05:41:32;;;;;;;3.28;1.83;;;21.20;99.90;;;;;;5113406;28;20232;-73
2023/07/30 05:43:58;;;;;;;3.25;1.90;;;21.20;99.90;;;;;;5112664;28;20237;-74
2023/07/30 05:46:25;;;;;;;3.72;2.05;;;21.40;99.90;;;;;;5113230;28;20228;-73
2023/07/30 05:48:52;;;;;;;2.70;1.83;;;21.50;99.90;;;;;;5112495;28;20748;-90
2023/07/30 05:51:19;;;;;;;1.77;1.40;;;21.30;99.90;;;;;;5113490;28;20213;-74
2023/07/30 05:53:48;;;;;;;4.28;1.88;;;21.50;99.90;;;;;;5113371;28;20232;-91
2023/07/30 05:56:18;;;;;;;4.13;1.50;;;21.60;99.90;;;;;;5113479;28;20242;-75
2023/07/30 05:58:45;;;;;;;7.35;1.60;;;21.60;99.90;;;;;;5112933;28;20244;-74
2023/07/30 06:01:12;;;;;;;4.07;1.85;;;21.50;99.90;;;;;;5112868;28;20272;-73
2023/07/30 06:03:39;;;;;;;1.88;1.45;;;21.60;99.90;;;;;;5113005;28;20227;-74
2023/07/30 06:06:06;;;;;;;2.05;1.25;;;21.60;99.90;;;;;;5113448;28;20205;-91
2023/07/30 06:08:33;;;;;;;1.48;1.05;;;21.80;99.90;;;;;;5112760;28;20244;-74
2023/07/30 06:11:04;;;;;;;2.92;1.60;;;21.70;99.90;;;;;;5112534;28;20248;-74
2023/07/30 06:13:31;;;;;;;2.22;1.45;;;21.80;99.90;;;;;;5112985;28;20207;-91
2023/07/30 06:15:58;;;;;;;3.80;2.08;;;21.90;99.90;;;;;;5112154;28;20243;-72
2023/07/30 06:18:24;;;;;;;4.72;1.80;;;21.80;99.90;;;;;;5112561;28;20722;-78
2023/07/30 06:20:51;;;;;;;3.20;1.63;;;21.80;99.90;;;;;;5112174;28;20267;-71
2023/07/30 06:23:18;;;;;;;2.88;1.33;;;21.50;99.90;;;;;;5112537;28;20251;-72
2023/07/30 06:25:45;;;;;;;2.22;1.55;;;21.30;99.90;;;;;;5112019;28;20244;-72
2023/07/30 06:28:13;;;;;;;3.30;1.63;;;21.20;99.90;;;;;;5112147;28;20255;-71
2023/07/30 06:30:40;;;;;;;2.90;1.67;;;21.20;99.90;;;;;;5112428;28;20240;-72
2023/07/30 06:33:07;;;;;;;2.85;2.00;;;21.30;99.90;;;;;;5112448;28;20201;-71
2023/07/30 06:35:34;;;;;;;3.45;1.48;;;21.50;99.90;;;;;;5112639;28;20212;-70
2023/07/30 06:38:01;;;;;;;3.33;1.50;;;21.50;99.90;;;;;;5111784;28;20239;-71
2023/07/30 06:40:28;;;;;;;1.65;1.52;;;21.50;99.90;;;;;;5111179;28;20240;-71
2023/07/30 06:42:55;;;;;;;3.42;1.40;;;21.50;99.90;;;;;;5112132;28;20928;-78
2023/07/30 06:45:23;;;;;;;3.22;1.23;;;21.70;99.90;;;;;;5112136;28;20228;-77
2023/07/30 06:47:50;;;;;;;3.85;2.15;;;22.00;99.90;;;;;;5094382;28;20667;-74
2023/07/30 06:50:17;;;;;;;5.10;1.40;;;21.90;99.90;;;;;;5095376;28;20236;-77
2023/07/30 06:52:44;;;;;;;3.33;1.83;;;21.70;99.90;;;;;;5086890;28;20289;-71
2023/07/30 06:55:11;;;;;;;1.48;1.33;;;21.90;99.90;;;;;;5098451;28;20209;-77
2023/07/30 06:57:38;;;;;;;3.50;1.55;;;22.00;99.90;;;;;;5090377;28;20197;-70
2023/07/30 07:00:05;;;;;;;2.75;1.40;;;22.30;99.90;;;;;;5088590;28;20247;-71
2023/07/30 07:02:34;;;;;;;2.75;1.85;;;22.50;99.90;;;;;;5090666;28;20233;-70
2023/07/30 07:05:01;;;;;;;6.20;1.92;;;22.40;99.90;;;;;;5089843;28;20708;-70
2023/07/30 07:07:27;;;;;;;1.90;1.25;;;22.10;99.90;;;;;;5100371;28;20200;-75
2023/07/30 07:09:54;;;;;;;2.10;1.48;;;22.00;99.90;;;;;;5111024;28;20244;-78
2023/07/30 07:12:21;;;;;;;3.97;1.73;;;22.00;99.90;;;;;;5105110;28;20587;-74
2023/07/30 07:14:48;;;;;;;5.88;1.77;;;22.30;99.90;;;;;;5110729;28;20240;-76
2023/07/30 07:17:15;;;;;;;2.95;1.95;;;22.30;99.90;;;;;;5103646;28;20704;-77
2023/07/30 07:19:44;;;;;;;6.03;1.88;;;22.60;99.90;;;;;;5107592;28;20239;-70
2023/07/30 07:22:11;;;;;;;4.32;1.55;;;22.60;99.90;;;;;;5098348;28;20229;-75
2023/07/30 07:24:38;;;;;;;3.05;1.63;;;22.60;99.90;;;;;;5091027;28;20679;-70
2023/07/30 07:27:05;;;;;;;4.43;1.80;;;22.80;99.90;;;;;;5090532;28;20212;-70
2023/07/30 07:29:32;;;;;;;4.03;1.90;;;23.60;99.90;;;;;;5108631;28;20232;-70
2023/07/30 07:31:59;;;;;;;3.45;1.70;;;23.60;99.90;;;;;;5098407;28;20248;-69
2023/07/30 07:34:26;;;;;;;2.83;1.33;;;23.40;99.90;;;;;;5090456;28;20661;-70
2023/07/30 07:36:54;;;;;;;2.55;1.88;;;23.60;99.90;;;;;;5090440;28;20240;-70
2023/07/30 07:39:22;;;;;;;2.58;1.65;;;23.20;99.90;;;;;;5090749;28;20205;-71
2023/07/30 07:41:48;;;;;;;4.20;2.00;;;23.00;99.90;;;;;;5094364;28;20751;-70
2023/07/30 07:44:15;;;;;;;3.70;1.80;;;22.60;99.90;;;;;;5090585;28;20197;-77
2023/07/30 07:46:42;;;;;;;5.60;2.45;;;22.60;99.90;;;;;;5093259;28;20240;-69
2023/07/30 07:49:09;;;;;;;3.60;1.60;;;22.70;99.90;;;;;;5110800;28;20692;-69
2023/07/30 07:51:36;;;;;;;3.40;1.58;;;22.80;99.90;;;;;;5109869;28;20201;-70
2023/07/30 07:54:04;;;;;;;3.15;1.75;;;23.10;99.90;;;;;;5089022;28;20672;-72
2023/07/30 07:56:31;;;;;;;4.20;2.15;;;23.40;99.90;;;;;;5091977;28;20248;-70
2023/07/30 07:58:58;;;;;;;2.17;1.88;;;23.50;99.90;;;;;;5109610;28;20270;-69
2023/07/30 08:01:25;;;;;;;2.40;1.80;;;24.00;99.90;;;;;;5109883;28;20264;-69
2023/07/30 08:03:52;;;;;;;4.40;2.08;;;24.10;99.90;;;;;;5090424;28;20660;-75
2023/07/30 08:06:19;;;;;;;3.65;1.30;;;24.00;99.90;;;;;;5098385;28;20583;-69
2023/07/30 08:08:46;;;;;;;4.85;1.90;;;23.80;99.90;;;;;;5101961;28;20232;-70
2023/07/30 08:11:15;;;;;;;3.53;2.45;;;23.70;99.90;;;;;;5103774;28;20273;-70
2023/07/30 08:13:42;;;;;;;1.95;1.73;;;23.60;99.90;;;;;;5093272;28;20665;-68
2023/07/30 08:16:09;;;;;;;2.47;1.58;;;23.50;99.90;;;;;;5090747;28;20201;-69
2023/07/30 08:18:35;;;;;;;2.42;2.13;;;23.70;99.90;;;;;;5090218;28;20233;-69
2023/07/30 08:21:02;;;;;;;1.63;1.48;;;23.80;99.90;;;;;;5090081;28;20240;-69
2023/07/30 08:23:29;;;;;;;3.60;1.80;;;23.90;99.90;;;;;;5090315;28;20252;-74
2023/07/30 08:25:56;;;;;;;4.45;1.88;;;24.10;99.90;;;;;;5089518;28;20685;-70
2023/07/30 08:28:24;;;;;;;6.75;2.05;;;23.90;99.90;;;;;;5089880;28;20238;-69
2023/07/30 08:30:51;;;;;;;2.50;1.80;;;23.80;99.90;;;;;;5089601;28;20237;-70
2023/07/30 08:33:18;;;;;;;2.53;1.52;;;24.00;99.90;;;;;;5090072;28;20245;-76
2023/07/30 08:35:45;;;;;;;4.22;2.30;;;24.40;99.90;;;;;;5089322;28;20229;-69
2023/07/30 08:38:12;;;;;;;3.95;2.13;;;24.60;99.90;;;;;;5105393;28;20236;-69
2023/07/30 08:40:39;;;;;;;5.22;2.03;;;24.20;99.90;;;;;;5095593;28;20228;-69
2023/07/30 08:43:06;;;;;;;2.53;1.67;;;24.20;99.90;;;;;;5095399;28;20265;-70
2023/07/30 08:45:34;;;;;;;3.05;1.65;;;24.60;99.90;;;;;;5090044;28;20201;-69
2023/07/30 08:48:01;;;;;;;3.35;2.15;;;24.90;99.90;;;;;;5095170;28;20236;-71
2023/07/30 08:50:29;;;;;;;2.53;1.67;;;25.00;99.90;;;;;;5109705;28;20243;-67
2023/07/30 08:52:56;;;;;;;5.68;2.00;;;24.80;99.90;;;;;;5109519;28;20680;-72
2023/07/30 08:55:25;;;;;;;5.82;1.98;;;24.60;99.90;;;;;;5109218;28;20248;-68
2023/07/30 08:57:52;;;;;;;3.25;1.98;;;24.10;99.90;;;;;;5099988;28;20286;-67
2023/07/30 09:00:23;;;;;;;3.70;1.95;;;23.90;99.90;;;;;;5085451;28;20248;-68
2023/07/30 09:02:53;;;;;;;2.75;1.10;;;24.10;99.90;;;;;;5085615;28;20276;-66
2023/07/30 09:05:22;;;;;;;3.15;1.80;;;24.30;99.90;;;;;;5093050;28;20244;-67
2023/07/30 09:07:49;;;;;;;2.67;2.00;;;24.40;99.90;;;;;;5092680;28;20666;-67
2023/07/30 09:10:16;;;;;;;4.38;2.03;;;25.00;99.90;;;;;;5093070;28;20229;-75
2023/07/30 09:12:43;;;;;;;2.92;1.77;;;25.40;99.90;;;;;;5091978;28;20234;-69
2023/07/30 09:15:10;;;;;;;3.50;1.95;;;25.30;99.90;;;;;;5092928;28;20233;-70
2023/07/30 09:17:38;;;;;;;4.65;2.00;;;25.50;99.90;;;;;;5109101;28;20653;-75
2023/07/30 09:20:08;;;;;;;4.57;2.05;;;26.20;99.90;;;;;;5107607;28;20240;-69
2023/07/30 09:22:39;;;;;;;2.13;1.75;;;26.20;99.90;;;;;;5112899;28;20232;-69
2023/07/30 09:25:07;;;;;;;6.05;1.95;;;26.00;99.90;;;;;;5091891;28;20251;-75
2023/07/30 09:27:34;;;;;;;4.82;1.83;;;26.00;99.90;;;;;;5092745;28;20241;-76
2023/07/30 09:30:04;;;;;;;4.07;2.10;;;25.90;99.90;;;;;;5090888;28;20707;-70
2023/07/30 09:32:33;;;;;;;5.28;1.83;;;25.90;99.90;;;;;;5105089;28;20231;-69
2023/07/30 09:35:07;;;;;;;4.13;1.90;;;25.40;99.90;;;;;;5099714;28;20245;-70
2023/07/30 09:37:37;;;;;;;2.22;2.03;;;26.50;99.90;;;;;;5093005;28;20220;-69
2023/07/30 09:40:06;;;;;;;4.05;2.03;;;27.70;99.90;;;;;;5092331;28;20254;-69
2023/07/30 09:42:35;;;;;;;4.68;1.95;;;28.60;99.90;;;;;;5090671;28;20265;-76
2023/07/30 09:45:02;;;;;;;3.90;2.10;;;27.40;99.90;;;;;;5092532;28;20209;-70
2023/07/30 09:47:31;;;;;;;3.30;2.42;;;26.80;99.90;;;;;;5109591;28;20236;-76
2023/07/30 09:49:58;;;;;;;3.55;2.30;;;26.90;99.90;;;;;;5101875;28;20251;-74
2023/07/30 09:52:27;;;;;;;3.67;1.50;;;26.80;99.90;;;;;;5092332;28;20241;-74
2023/07/30 09:54:54;;;;;;;3.67;2.17;;;27.00;99.90;;;;;;5095934;28;20353;-69
2023/07/30 09:57:21;;;;;;;4.65;2.45;;;26.60;99.90;;;;;;5111965;28;20704;-68
2023/07/30 09:59:48;;;;;;;3.58;2.22;;;26.40;99.90;;;;;;5094018;28;20236;-76
2023/07/30 10:02:15;;;;;;;4.55;2.05;;;26.40;99.90;;;;;;5092627;28;20249;-76
2023/07/30 10:04:47;;;;;;;3.58;1.77;;;26.40;99.90;;;;;;5109941;28;20240;-70
2023/07/30 10:07:18;;;;;;;2.83;1.55;;;26.30;99.90;;;;;;5112224;27;20310;-73
2023/07/30 10:09:49;;;;;;;2.78;1.67;;;26.40;99.90;;;;;;5094471;28;20229;-69
2023/07/30 10:12:22;;;;;;;4.40;2.22;;;26.70;99.90;;;;;;5092340;28;20251;-70
2023/07/30 10:14:49;;;;;;;3.45;1.85;;;27.20;99.90;;;;;;5090468;28;20237;-71
2023/07/30 10:17:18;;;;;;;3.72;2.65;;;27.80;99.90;;;;;;5092115;28;20248;-74
2023/07/30 10:19:48;;;;;;;3.78;1.73;;;28.20;99.90;;;;;;5091806;28;20225;-73
2023/07/30 10:22:23;;;;;;;3.63;2.33;;;28.20;99.90;;;;;;5085247;28;20233;-70
2023/07/30 10:25:01;;;;;;;2.85;2.00;;;28.10;99.90;;;;;;5085130;28;20634;-76
2023/07/30 10:27:37;;;;;;;3.38;1.90;;;29.70;99.90;;;;;;5086718;28;20197;-76
2023/07/30 10:30:11;;;;;;;2.83;1.67;;;28.90;99.90;;;;;;5091432;28;20234;-73
2023/07/30 10:32:42;;;;;;;3.78;2.03;;;28.70;99.90;;;;;;5093258;28;20233;-70
2023/07/30 10:35:09;;;;;;;2.40;1.90;;;28.10;99.90;;;;;;5112117;28;20240;-70
2023/07/30 10:37:36;;;;;;;3.85;1.52;;;27.90;99.90;;;;;;5112153;28;20676;-69
2023/07/30 10:40:18;;;;;;;4.55;2.38;;;27.70;99.90;;;;;;5092061;27;20226;-73
2023/07/30 10:42:45;;;;;;;4.03;2.10;;;28.10;99.90;;;;;;5086668;28;20722;-77
2023/07/30 10:45:12;;;;;;;3.17;1.77;;;27.70;99.90;;;;;;5111769;28;20710;-70
2023/07/30 10:47:42;;;;;;;4.88;1.98;;;27.50;99.90;;;;;;5111599;28;20262;-69
2023/07/30 10:50:11;;;;;;;3.58;1.70;;;27.40;99.90;;;;;;5111870;28;20215;-71
2023/07/30 10:52:38;;;;;;;2.85;2.03;;;27.00;99.90;;;;;;5097552;28;20266;-75
2023/07/30 10:55:06;;;;;;;3.13;2.33;;;27.20;99.90;;;;;;5104391;28;20741;-72
2023/07/30 10:57:35;;;;;;;3.83;2.47;;;27.30;99.90;;;;;;5108505;28;20250;-69
2023/07/30 11:00:02;;;;;;;4.07;1.70;;;27.00;99.90;;;;;;5111566;27;20281;-74
2023/07/30 11:02:29;;;;;;;3.45;1.98;;;26.80;99.90;;;;;;5111607;28;20260;-69
2023/07/30 11:04:56;;;;;;;3.92;2.15;;;27.20;99.90;;;;;;5111241;28;20212;-70
2023/07/30 11:07:23;;;;;;;2.17;1.73;;;27.20;99.90;;;;;;5111467;28;20243;-75
2023/07/30 11:10:00;;;;;;;2.10;1.58;;;27.10;99.90;;;;;;5104885;28;20232;-76
2023/07/30 11:12:27;;;;;;;5.53;2.28;;;26.70;99.90;;;;;;5104647;28;20205;-76
2023/07/30 11:15:03;;;;;;;4.75;2.00;;;26.30;99.90;;;;;;5090987;28;20233;-75
2023/07/30 11:17:30;;;;;;;5.18;1.73;;;26.10;99.90;;;;;;5088798;28;20240;-73
2023/07/30 11:19:57;;;;;;;3.30;1.52;;;26.30;99.90;;;;;;5090679;28;20233;-78
2023/07/30 11:22:30;;;;;;;3.33;1.92;;;26.30;99.90;;;;;;5090647;28;20286;-75
2023/07/30 11:24:58;;;;;;;3.67;1.90;;;26.80;99.90;;;;;;5090593;28;20212;-73
2023/07/30 11:27:25;;;;;;;3.33;3.00;;;27.10;99.90;;;;;;5090593;28;20586;-75
2023/07/30 11:29:58;;;;;;;3.97;1.95;;;27.40;99.90;;;;;;5087320;28;20241;-73
2023/07/30 11:32:29;;;;;;;2.47;1.52;;;27.50;99.90;;;;;;5088286;28;20233;-72
2023/07/30 11:34:56;;;;;;;2.72;1.70;;;28.00;99.90;;;;;;5090418;28;20209;-73
2023/07/30 11:37:24;;;;;;;2.63;1.92;;;27.80;99.90;;;;;;5090567;28;20225;-72
2023/07/30 11:39:52;;;;;;;3.58;1.80;;;27.90;99.90;;;;;;5090276;28;20233;-72
2023/07/30 11:42:19;;;;;;;2.33;1.42;;;27.60;99.90;;;;;;5108921;28;20201;-73
2023/07/30 11:44:46;;;;;;;3.33;2.40;;;27.20;99.90;;;;;;5107321;28;20229;-72
2023/07/30 11:47:22;;;;;;;3.15;1.83;;;27.20;99.90;;;;;;5087882;28;20232;-72
2023/07/30 11:49:57;;;;;;;3.35;1.90;;;27.30;99.90;;;;;;5107130;28;20207;-73
2023/07/30 11:52:24;;;;;;;3.75;1.80;;;27.20;99.90;;;;;;5076470;28;20680;-72
2023/07/30 11:55:01;;;;;;;1.65;1.55;;;27.50;99.90;;;;;;5083726;28;20684;-72
2023/07/30 11:57:34;;;;;;;2.92;1.98;;;26.80;99.90;;;;;;5079267;28;20238;-69
2023/07/30 12:00:02;;;;;;;3.42;1.90;;;26.40;99.90;;;;;;5076061;28;20248;-74
2023/07/30 12:02:30;;;;;;;3.03;2.08;;;26.30;99.90;;;;;;5090528;28;20652;-71
2023/07/30 12:04:58;;;;;;;4.75;2.78;;;26.40;99.90;;;;;;5101994;28;20243;-71
2023/07/30 12:07:26;;;;;;;5.90;2.13;;;26.30;99.90;;;;;;5110629;28;20196;-72
2023/07/30 12:09:53;;;;;;;2.53;1.98;;;26.50;99.90;;;;;;5110378;28;20745;-77
2023/07/30 12:12:20;;;;;;;3.05;2.10;;;26.60;99.90;;;;;;5110799;28;20245;-73
2023/07/30 12:14:55;;;;;;;4.82;2.15;;;26.60;99.90;;;;;;5110762;28;20711;-72
2023/07/30 12:17:22;;;;;;;4.40;2.20;;;26.60;99.90;;;;;;5110747;28;20208;-72
2023/07/30 12:19:49;;;;;;;5.15;2.85;;;27.10;99.90;;;;;;5110256;28;20679;-75
2023/07/30 12:22:18;;;;;;;2.38;1.48;;;27.40;99.90;;;;;;5101455;28;20241;-73
2023/07/30 12:24:44;;;;;;;3.35;1.40;;;27.70;99.90;;;;;;5090056;28;20229;-74
2023/07/30 12:27:11;;;;;;;4.15;2.53;;;27.80;99.90;;;;;;5095697;28;20244;-72
2023/07/30 12:29:38;;;;;;;5.57;1.58;;;27.70;99.90;;;;;;5111186;28;20236;-72
2023/07/30 12:32:05;;;;;;;5.93;1.80;;;27.80;99.90;;;;;;5110590;28;20243;-72
2023/07/30 12:34:32;;;;;;;2.78;1.77;;;27.70;99.90;;;;;;5110326;28;20302;-72
2023/07/30 12:37:00;;;;;;;4.07;1.55;;;28.40;99.90;;;;;;5110158;28;20249;-76
2023/07/30 12:39:28;;;;;;;2.70;2.03;;;28.50;99.90;;;;;;5113749;28;20236;-74
2023/07/30 12:41:55;;;;;;;2.05;1.65;;;29.00;99.90;;;;;;5114005;28;20258;-72
2023/07/30 12:44:22;;;;;;;2.65;1.45;;;28.50;99.90;;;;;;5114403;28;20285;-72
2023/07/30 12:46:48;;;;;;;2.80;1.55;;;27.90;99.90;;;;;;5114095;28;20236;-73
2023/07/30 12:49:15;;;;;;;2.55;1.80;;;27.80;99.90;;;;;;5114442;28;20240;-72
2023/07/30 12:51:42;;;;;;;2.75;1.50;;;27.80;99.90;;;;;;5114217;28;20236;-73